Mattias Guidetti

Chief Scout - Orebro
21 Oct 2027
Thursday
Process

Personality

Adaptability (10) Ambition (18) Controversy (14) Loyalty (3) Pressure (9) Professionalism (16) Sportsmanship (20) Temperament (1)

Profile

Coaching Style Democratic
License National B
Determination 6
Man Management 7
Motivating 7
Discipline 11
Job Satisfaction
100%
Fatigue
0%
Role Chief Scout
Wage 11.6K p/w
Contract 14.03.2029

Performance

Behaviour Good
Training Effectiveness
39%
Player Development
55%
Injury Prevention
35%
Tactical Implementation
20%

Recent Events

Attended a recruitment meeting now
Recommended a transfer target now
Attended a recruitment meeting 7d ago
Recommended a transfer target 7d ago
Recommended a transfer target 7d ago
Recommended a transfer target 7d ago
Recommended a transfer target 14d ago
Recommended a transfer target 14d ago

Currently Monitoring

169
Player Club Status Ability Confidence Watched Last Observed Latest Vote
Ilja Zhbanov Cobresal Negotiating 90 / 94 66% 1 16.07.2027 -
Dale Taylor Blackpool Active 105 / 112 40% 3 13.07.2027 -
Kyrell Lisbie Peterborough United Active 108 / 103 40% 1 13.07.2027 -
Jaze Kabia Grimsby Town Active 100 / 90 40% 1 13.07.2027 -
Callum Stead Barnet Active 96 / 106 40% 2 12.07.2027 -
Chineme Chinonso Ikorodu City Active 101 / 98 40% 1 12.07.2027 -
Malik Mothersille Stockport County Active 125 / 129 40% 5 11.07.2027 -
Sam Dalby Bolton Wanderers Active 103 / 105 40% 1 11.07.2027 -
Abu Kamara Portsmouth Active 127 / 113 40% 3 09.07.2027 -
Bernat Guiu Virtus Entella Active 110 / 126 40% 4 09.07.2027 -
Bradley Fink Wycombe Wanderers Active 110 / 124 40% 2 09.07.2027 -
Tyrese Shade Burton Albion Active 99 / 100 40% 3 08.07.2027 -
Will Swan Bradford City Active 109 / 94 40% 2 06.07.2027 -
Josh Coburn Millwall Active 119 / 130 40% 1 06.07.2027 -
Adam Randell Bristol City Active 128 / 136 40% 5 04.07.2027 -
Alfie Doughty Millwall Active 136 / 131 40% 3 04.07.2027 -
Nicolas Madsen Queens Park Rangers Active 135 / 137 40% 4 04.07.2027 -
Toby Collyer West Bromwich Albion Active 136 / 143 40% 7 03.07.2027 -
Harvey Vale Queens Park Rangers Active 131 / 126 40% 3 03.07.2027 -
Hayden Carter Blackburn Rovers Active 133 / 119 40% 2 03.07.2027 -
Josh Neufville Bradford City Active 109 / 103 40% 2 02.07.2027 -
Lee Buchanan Sheffield Wednesday Active 120 / 122 40% 2 02.07.2027 -
Ousmane Diakité West Bromwich Albion Active 135 / 119 40% 2 02.07.2027 -
Lewis Bate Stockport County Active 120 / 131 40% 2 01.07.2027 -
Luca Connell Barnsley Active 108 / 127 40% 2 01.07.2027 -
Augustus Kargbo Blackburn Rovers Active 108 / 121 40% 1 01.07.2027 -
Charlie Webster Burton Albion Active 110 / 127 40% 3 29.06.2027 -
Alfie Devine Preston Active 113 / 115 40% 2 29.06.2027 -
Guille Rosas Gijón Active 153 / 138 40% 2 29.06.2027 -
Dennis Cirkin Queens Park Rangers Active 137 / 124 40% 6 28.06.2027 -
Luke McNally Bristol City Active 122 / 122 40% 8 28.06.2027 -
Jack Currie Oxford United Active 127 / 127 40% 5 27.06.2027 -
Aaron Morley Wycombe Wanderers Active 117 / 122 40% 5 27.06.2027 -
Mitchel Bakker Modena Active 125 / 121 40% 3 26.06.2027 -
Ronnie Edwards Queens Park Rangers Active 126 / 121 40% 1 26.06.2027 -
Marezi Portsmouth Active 131 / 124 40% 2 25.06.2027 -
Oliver Arblaster Sheffield United Active 134 / 124 40% 1 25.06.2027 -
Sam Greenwood Bristol City Active 119 / 132 40% 4 23.06.2027 -
Johnly Yfeko Exeter City Active 122 / 115 40% 4 23.06.2027 -
Moussa Baradji Blackburn Rovers Active 136 / 116 40% 4 23.06.2027 -
Tyreece Campbell Charlton Athletic Active 114 / 114 40% 1 23.06.2027 -
Aidomo Emakhu Oxford United Active 126 / 126 40% 2 22.06.2027 -
Issa Kaboré Wrexham Active 137 / 142 40% 5 19.06.2027 -
Harvey White Stevenage Active 124 / 121 40% 4 19.06.2027 -
Jacques Ekomié Wrexham Active 121 / 145 40% 4 18.06.2027 -
Liam Kitching Coventry City Active 119 / 132 40% 1 18.06.2027 -
Bosun Lawal Stoke City Active 127 / 129 40% 2 17.06.2027 -
Tyrese Campbell Sheffield United Active 133 / 140 40% 4 17.06.2027 -
Terry Devlin Portsmouth Active 128 / 124 40% 1 15.06.2027 -
James Morris Leyton Orient Active 127 / 111 40% 3 14.06.2027 -
Junior Tchamadeu Stoke City Active 117 / 119 40% 2 14.06.2027 -
Jay Matete Milton Keynes Dons Active 113 / 126 40% 2 12.06.2027 -
Harrison Burrows Sheffield United Active 133 / 133 40% 2 11.06.2027 -
Ethan Pye Stockport County Active 126 / 122 40% 2 11.06.2027 -
Pelle Mattsson Norwich City Active 116 / 132 40% 2 10.06.2027 -
Edoardo Bove Watford Active 129 / 124 40% 3 10.06.2027 -
Max Conway Bolton Wanderers Active 130 / 124 40% 4 08.06.2027 -
Harry Clarke Preston Active 126 / 121 40% 3 08.06.2027 -
Max Bird Birmingham Active 131 / 121 40% 2 07.06.2027 -
Lorent Tolaj Plymouth Argyle Active 130 / 122 40% 2 07.06.2027 -
Hector Kyprianou Watford Active 113 / 109 40% 1 04.06.2027 -
Darlin Yongwa Norwich City Active 125 / 123 40% 3 03.06.2027 -
Tyrese Fornah Northampton Town Active 118 / 102 40% 1 03.06.2027 -
Caspar Jander Southampton Active 127 / 125 40% 1 03.06.2027 -
Brian De Keersmaecker Oxford United Active 136 / 118 40% 2 02.06.2027 -
Andrea Carboni Monza Active 142 / 136 40% 3 02.06.2027 -
Kristoffer Lund Birmingham Active 126 / 132 40% 3 01.06.2027 -
Kamil Conteh Bristol Rovers Active 109 / 104 40% 1 31.05.2027 -
Liam Bennett Cambridge United Active 95 / 103 40% 1 31.05.2027 -
Mathias Kvistgaarden Norwich City Active 121 / 111 40% 1 31.05.2027 -
Moussa Yeo Swansea City Active 120 / 113 40% 2 28.05.2027 -
Bradley Ihionvien Peterborough United Active 85 / 84 40% 1 28.05.2027 -
Idris El Mizouni Leyton Orient Active 112 / 128 40% 1 24.05.2027 -
Erick Dolly Black Aces Active 107 / 124 40% 1 22.05.2027 -
Giorgi Kvernadze Frosinone Active 114 / 112 40% 1 21.05.2027 -
Archie Collins Peterborough United Active 112 / 117 40% 1 20.05.2027 -
Matthew Smith Accrington Stanley Active 114 / 111 40% 1 20.05.2027 -
Lewis Gibson Preston Active 134 / 135 40% 2 17.05.2027 -
Joel Bagan Cardiff City Active 116 / 104 40% 5 16.05.2027 -
Andri Guðjohnsen Blackburn Rovers Active 120 / 111 40% 2 15.05.2027 -
Will Fish Cardiff City Active 121 / 131 40% 1 15.05.2027 -
Jonathan Dellarossa Lokomotiv Plovdiv Active 111 / 113 40% 1 15.05.2027 -
Connor Barrett Walsall Active 95 / 102 40% 2 11.05.2027 -
Josh Flint Gillingham Active 103 / 97 40% 1 11.05.2027 -
Fábio Tavares Burton Albion Active 105 / 97 40% 1 11.05.2027 -
Nobel Mendy Hull City Active 136 / 122 40% 1 09.05.2027 -
John Yeboah Venezia Active 123 / 116 40% 1 07.05.2027 -
Luca Moro Padova Active 110 / 111 40% 1 07.05.2027 -
Christ Wawa Gefle Active 105 / 110 52% 1 / 1m 05.05.2027 -
George Brown Sheffield Wednesday Active 100 / 99 40% 1 04.05.2027 -
Mees Rijks Bristol Rovers Active 101 / 115 40% 1 03.05.2027 -
Stiven Shpendi Empoli Active 127 / 117 40% 1 03.05.2027 -
Michael Baidoo Plymouth Argyle Active 119 / 125 40% 1 01.05.2027 -
Jack MacKenzie Plymouth Argyle Active 121 / 113 40% 1 01.05.2027 -
Xavier Simons Bolton Wanderers Active 113 / 110 40% 2 27.04.2027 -
Tom Hamer Lincoln City Active 101 / 100 40% 2 25.04.2027 -
Romano Floriani Mussolini Blackpool Active 132 / 130 40% 2 25.04.2027 -
Christoph Klarer Birmingham Active 133 / 128 40% 1 24.04.2027 -
Bjorn Meijer Sampdoria Active 129 / 126 40% 1 23.04.2027 -
Brendan Wiredu Plymouth Argyle Active 107 / 109 40% 2 19.04.2027 -
Max Cleworth Wrexham Active 127 / 119 40% 1 19.04.2027 -
Billy Gilmour Napoli Active 151 / 150 40% 1 16.04.2027 -
James Dornelly Peterborough United Active 98 / 118 40% 1 14.04.2027 -
Mattia Viti Sampdoria Active 137 / 131 40% 1 12.04.2027 -
Jonathan Varane Queens Park Rangers Active 132 / 114 40% 2 10.04.2027 -
Joe Tomlinson Milton Keynes Dons Active 94 / 107 40% 1 10.04.2027 -
Mahmoud Bentayg Zamalek Active 118 / 128 40% 1 07.04.2027 -
Josh Tymon Swansea City Active 113 / 133 40% 1 29.03.2027 -
Wandile Duba ASO Chlef Active 101 / 120 40% 1 17.03.2027 -
Leighton Clarkson Blackpool Active 127 / 104 40% 1 15.02.2027 -
Vitalii Dakhnovskyi Bukovyna Active 101 / 97 40% 1 02.02.2027 -
Caio Vidal Deportivo Pereira Active 128 / 129 63% 1 01.02.2027 Approve
Samuel Asamoah Alianza Petrolera Negotiating 104 / 110 66% 1 01.02.2027 -
Isaac Partey Union Magdalena Active 108 / 109 66% 1 01.02.2027 Approve
David Boateng San Marcos de Arica Active 95 / 95 66% 1 01.02.2027 Approve
Álex Centelles Levski Active 118 / 124 40% 1 31.01.2027 -
Cian Ashford Cardiff City Active 120 / 108 40% 5 30.01.2027 -
Tomáš Rigo Stoke City Active 143 / 133 40% 2 28.01.2027 -
Milan van Ewijk Coventry City Active 132 / 137 40% 1 28.01.2027 -
Léo Pereira CSKA Sofia Active 120 / 106 40% 1 28.01.2027 -
Florentino Luís Ipswich Town Active 133 / 132 40% 2 27.01.2027 -
Ilyas Ansah Hull City Active 136 / 120 40% 2 27.01.2027 -
Alex Robertson Cardiff City Active 120 / 134 40% 4 26.01.2027 -
Melker Widell Swansea City Active 109 / 110 40% 1 25.01.2027 -
Scott Twine Bristol City Active 128 / 124 40% 2 23.01.2027 -
Lebogang Manyama SuperSport United Active 106 / 115 40% 1 23.01.2027 -
Peter Federico Gornik Zabrze Active 124 / 121 40% 1 23.01.2027 -
Ethan Galbraith Swansea City Active 122 / 132 40% 1 21.01.2027 -
Sorba Thomas Stoke City Active 137 / 141 40% 2 17.01.2027 -
Million Manhoef Stoke City Active 130 / 125 40% 1 15.01.2027 -
Stephen Amankona Aduana Stars Active 81 / 96 40% 1 15.01.2027 -
Dylan Levitt Leyton Orient Active 117 / 121 40% 1 15.01.2027 -
Oswin Appollis Orlando Pirates Active 116 / 111 40% 4 14.01.2027 -
Juan Pablo Gallego Fehervar Active 103 / 98 40% 1 12.01.2027 -
Marcelo Allende Mamelodi Sundowns Active 135 / 119 40% 3 10.01.2027 -
David Turnbull Cardiff City Active 130 / 110 40% 1 10.01.2027 -
Ronaldo Maarman University of Pretoria Active 113 / 113 40% 2 07.01.2027 -
Thalente Mbatha Orlando Pirates Active 131 / 122 40% 1 06.01.2027 -
Juan Bezerra Zamalek Active 108 / 132 40% 1 04.01.2027 -
Jack McGlynn Stoke City Active 136 / 127 40% 1 03.01.2027 -
Ali Ahmed Norwich City Active 129 / 129 40% 1 03.01.2027 -
Harvey Knibbs Charlton Athletic Active 119 / 93 40% 1 02.01.2027 -
Adu Ares Eibar Active 115 / 129 40% 1 01.01.2027 -
Bradley Zwane SuperSport United Active 129 / 107 40% 2 30.12.2026 -
Joe Gelhardt Hull City Active 144 / 122 40% 1 25.12.2026 -
Declan Frith Peterborough United Active 97 / 98 40% 1 25.12.2026 -
Cheick Oumar Souaré Viktoria Plzen Active 125 / 137 40% 1 24.12.2026 -
Dominik Pleštil Bohemians 1905 Active 124 / 102 40% 1 24.12.2026 -
Isaiah Jones Luton Town Active 111 / 125 40% 1 24.12.2026 -
Petar Stanić Ludogorets Active 147 / 140 40% 1 23.12.2026 -
Bongani Zungu Ajax Cape Town Active 136 / 133 40% 1 21.12.2026 -
Brooklyn Poggenpoel Maritzburg United Active 97 / 112 40% 1 21.12.2026 -
Jack Rudoni Coventry City Active 144 / 140 40% 1 20.12.2026 -
Suleiman Camara Slovan Bratislava Active 120 / 125 40% 1 19.12.2026 -
Victor Lind Hammarby Active 119 / 122 40% 1 18.12.2026 -
Themba Dala Black Aces Active 111 / 124 40% 1 18.12.2026 -
Peter Valjent FK Senica Active 126 / 122 40% 2 17.12.2026 -
Koki Saito Queens Park Rangers Active 136 / 114 40% 1 17.12.2026 -
Kwadwo Baah Watford Active 121 / 134 40% 1 16.12.2026 -
Tony Springett Cheltenham Town Active 101 / 95 40% 1 12.12.2026 -
Manu Morlanes Mallorca Active 123 / 140 40% 1 12.12.2026 -
Derensili Sanches Fernandes Huddersfield Town Active 126 / 132 40% 1 11.12.2026 -
Kelvin Yeboah Minnesota United FC Active 126 / 126 40% 1 05.11.2026 -
David Miculescu FCSB Active 132 / 112 40% 1 05.11.2026 -
David Da Costa Portland Timbers Active 119 / 139 40% 1 04.11.2026 -
Jesus Ferreira Seattle Sounders Active 128 / 135 40% 1 03.08.2026 -
Germán Berterame Inter Miami CF Active 131 / 141 40% 1 03.08.2026 -
Conor Coventry Charlton Athletic Active 108 / 125 40% 1 01.08.2026 -
Giovani Lo Celso Betis Active 149 / 163 40% 1 01.08.2026 -